sensor_id;sensor_type;location;lat;lon;timestamp;pressure;altitude;pressure_sealevel;temperature;humidity
33845;BME280;20145;43.118;25.694;2023-05-25T00:00:41;99355.13;;;15.72;100.00
33845;BME280;20145;43.118;25.694;2023-05-25T00:03:06;99363.03;;;15.68;100.00
33845;BME280;20145;43.118;25.694;2023-05-25T00:05:35;99357.22;;;15.61;100.00
33845;BME280;20145;43.118;25.694;2023-05-25T00:08:01;99361.06;;;15.49;100.00
33845;BME280;20145;43.118;25.694;2023-05-25T00:10:28;99358.72;;;15.42;100.00
33845;BME280;20145;43.118;25.694;2023-05-25T00:13:07;99358.00;;;15.36;100.00
33845;BME280;20145;43.118;25.694;2023-05-25T00:15:57;99356.25;;;15.37;100.00
33845;BME280;20145;43.118;25.694;2023-05-25T00:18:34;99358.31;;;15.27;100.00
33845;BME280;20145;43.118;25.694;2023-05-25T00:21:03;99364.69;;;15.17;100.00
33845;BME280;20145;43.118;25.694;2023-05-25T00:23:42;99358.31;;;14.99;100.00
33845;BME280;20145;43.118;25.694;2023-05-25T00:26:07;99322.75;;;14.73;100.00
33845;BME280;20145;43.118;25.694;2023-05-25T00:28:33;99319.31;;;14.72;100.00
33845;BME280;20145;43.118;25.694;2023-05-25T00:31:05;99348.28;;;14.88;100.00
33845;BME280;20145;43.118;25.694;2023-05-25T00:33:30;99316.84;;;14.68;100.00
33845;BME280;20145;43.118;25.694;2023-05-25T00:35:56;99345.91;;;14.81;100.00
33845;BME280;20145;43.118;25.694;2023-05-25T00:38:22;99352.94;;;14.77;100.00
33845;BME280;20145;43.118;25.694;2023-05-25T00:40:54;99355.72;;;14.71;100.00
33845;BME280;20145;43.118;25.694;2023-05-25T00:43:20;99354.84;;;14.72;100.00
33845;BME280;20145;43.118;25.694;2023-05-25T00:45:46;99345.31;;;14.71;100.00
33845;BME280;20145;43.118;25.694;2023-05-25T00:48:12;99345.69;;;14.59;100.00
33845;BME280;20145;43.118;25.694;2023-05-25T00:50:40;99359.66;;;14.55;100.00
33845;BME280;20145;43.118;25.694;2023-05-25T00:53:08;99350.53;;;14.40;100.00
33845;BME280;20145;43.118;25.694;2023-05-25T00:56:03;99331.91;;;14.25;100.00
33845;BME280;20145;43.118;25.694;2023-05-25T00:58:30;99331.81;;;14.28;100.00
33845;BME280;20145;43.118;25.694;2023-05-25T01:00:59;99352.28;;;14.39;100.00
33845;BME280;20145;43.118;25.694;2023-05-25T01:03:27;99326.94;;;14.18;100.00
33845;BME280;20145;43.118;25.694;2023-05-25T01:05:55;99340.63;;;14.23;100.00
33845;BME280;20145;43.118;25.694;2023-05-25T01:08:23;99351.59;;;14.33;100.00
33845;BME280;20145;43.118;25.694;2023-05-25T01:10:51;99337.84;;;14.29;100.00
33845;BME280;20145;43.118;25.694;2023-05-25T01:13:18;99335.13;;;14.34;100.00
33845;BME280;20145;43.118;25.694;2023-05-25T01:15:47;99347.28;;;14.33;100.00
33845;BME280;20145;43.118;25.694;2023-05-25T01:18:16;99341.28;;;14.31;100.00
33845;BME280;20145;43.118;25.694;2023-05-25T01:20:55;99351.75;;;14.28;100.00
33845;BME280;20145;43.118;25.694;2023-05-25T01:23:27;99332.13;;;14.18;100.00
33845;BME280;20145;43.118;25.694;2023-05-25T01:25:59;99347.41;;;14.28;100.00
33845;BME280;20145;43.118;25.694;2023-05-25T01:28:40;99350.84;;;14.29;100.00
33845;BME280;20145;43.118;25.694;2023-05-25T01:31:07;99346.56;;;14.26;100.00
33845;BME280;20145;43.118;25.694;2023-05-25T01:33:35;99349.16;;;14.28;100.00
33845;BME280;20145;43.118;25.694;2023-05-25T01:36:02;99319.25;;;14.13;100.00
33845;BME280;20145;43.118;25.694;2023-05-25T01:38:41;99346.56;;;14.28;100.00
33845;BME280;20145;43.118;25.694;2023-05-25T01:41:09;99330.59;;;14.11;100.00
33845;BME280;20145;43.118;25.694;2023-05-25T01:43:39;99335.66;;;14.15;100.00
33845;BME280;20145;43.118;25.694;2023-05-25T01:46:41;99332.19;;;14.16;100.00
33845;BME280;20145;43.118;25.694;2023-05-25T01:52:21;99340.38;;;14.01;100.00
33845;BME280;20145;43.118;25.694;2023-05-25T01:55:05;99351.59;;;14.01;100.00
33845;BME280;20145;43.118;25.694;2023-05-25T01:57:55;99345.53;;;14.02;100.00
33845;BME280;20145;43.118;25.694;2023-05-25T02:00:24;99354.25;;;14.00;100.00
33845;BME280;20145;43.118;25.694;2023-05-25T02:02:52;99351.66;;;14.00;100.00
33845;BME280;20145;43.118;25.694;2023-05-25T02:05:27;99360.19;;;14.03;100.00
33845;BME280;20145;43.118;25.694;2023-05-25T02:07:53;99363.63;;;14.04;100.00
33845;BME280;20145;43.118;25.694;2023-05-25T02:10:19;99351.69;;;13.98;100.00
33845;BME280;20145;43.118;25.694;2023-05-25T02:16:03;99361.00;;;14.05;100.00
33845;BME280;20145;43.118;25.694;2023-05-25T02:21:32;99345.84;;;13.90;100.00
33845;BME280;20145;43.118;25.694;2023-05-25T02:23:57;99353.69;;;13.89;100.00
33845;BME280;20145;43.118;25.694;2023-05-25T02:26:23;99356.97;;;13.94;100.00
33845;BME280;20145;43.118;25.694;2023-05-25T02:28:52;99370.00;;;13.92;100.00
33845;BME280;20145;43.118;25.694;2023-05-25T02:31:24;99367.59;;;13.86;100.00
33845;BME280;20145;43.118;25.694;2023-05-25T02:33:53;99375.34;;;13.86;100.00
33845;BME280;20145;43.118;25.694;2023-05-25T02:36:31;99378.03;;;13.83;100.00
33845;BME280;20145;43.118;25.694;2023-05-25T02:38:57;99372.03;;;13.81;100.00
33845;BME280;20145;43.118;25.694;2023-05-25T02:41:29;99373.81;;;13.79;100.00
33845;BME280;20145;43.118;25.694;2023-05-25T02:44:16;99380.81;;;13.75;100.00
33845;BME280;20145;43.118;25.694;2023-05-25T02:47:04;99382.69;;;13.70;100.00
33845;BME280;20145;43.118;25.694;2023-05-25T02:49:32;99365.69;;;13.58;100.00
33845;BME280;20145;43.118;25.694;2023-05-25T02:51:59;99371.66;;;13.60;100.00
33845;BME280;20145;43.118;25.694;2023-05-25T02:57:46;99387.75;;;13.75;100.00
33845;BME280;20145;43.118;25.694;2023-05-25T03:00:26;99365.53;;;13.65;100.00
33845;BME280;20145;43.118;25.694;2023-05-25T03:05:49;99397.63;;;13.93;100.00
33845;BME280;20145;43.118;25.694;2023-05-25T03:08:32;99398.25;;;14.03;100.00
33845;BME280;20145;43.118;25.694;2023-05-25T03:11:02;99397.16;;;14.12;100.00
33845;BME280;20145;43.118;25.694;2023-05-25T03:13:52;99403.75;;;14.23;100.00
33845;BME280;20145;43.118;25.694;2023-05-25T03:16:28;99406.09;;;14.33;100.00
33845;BME280;20145;43.118;25.694;2023-05-25T03:18:55;99398.91;;;14.44;100.00
33845;BME280;20145;43.118;25.694;2023-05-25T03:21:27;99397.72;;;14.56;100.00
33845;BME280;20145;43.118;25.694;2023-05-25T03:24:01;99366.66;;;14.53;100.00
33845;BME280;20145;43.118;25.694;2023-05-25T03:26:43;99399.44;;;14.85;100.00
33845;BME280;20145;43.118;25.694;2023-05-25T03:29:20;99405.69;;;15.07;100.00
33845;BME280;20145;43.118;25.694;2023-05-25T03:31:46;99414.94;;;15.17;100.00
33845;BME280;20145;43.118;25.694;2023-05-25T03:34:11;99416.25;;;15.31;100.00
33845;BME280;20145;43.118;25.694;2023-05-25T03:36:37;99425.22;;;15.49;100.00
33845;BME280;20145;43.118;25.694;2023-05-25T03:39:14;99419.56;;;15.62;100.00
33845;BME280;20145;43.118;25.694;2023-05-25T03:41:39;99425.06;;;15.81;100.00
33845;BME280;20145;43.118;25.694;2023-05-25T03:44:07;99422.91;;;15.94;100.00
33845;BME280;20145;43.118;25.694;2023-05-25T03:46:37;99393.16;;;16.01;100.00
33845;BME280;20145;43.118;25.694;2023-05-25T03:49:03;99408.59;;;16.31;100.00
33845;BME280;20145;43.118;25.694;2023-05-25T03:51:30;99417.47;;;16.74;100.00
33845;BME280;20145;43.118;25.694;2023-05-25T03:53:56;99416.50;;;17.24;100.00
33845;BME280;20145;43.118;25.694;2023-05-25T03:56:23;99416.03;;;17.78;97.49
33845;BME280;20145;43.118;25.694;2023-05-25T03:58:48;99418.13;;;18.32;93.52
33845;BME280;20145;43.118;25.694;2023-05-25T04:01:14;99398.13;;;18.70;89.39
33845;BME280;20145;43.118;25.694;2023-05-25T04:03:40;99425.25;;;19.43;87.74
33845;BME280;20145;43.118;25.694;2023-05-25T04:06:06;99427.09;;;19.95;85.25
33845;BME280;20145;43.118;25.694;2023-05-25T04:08:33;99425.97;;;20.34;83.03
33845;BME280;20145;43.118;25.694;2023-05-25T04:11:00;99436.28;;;20.71;80.54
33845;BME280;20145;43.118;25.694;2023-05-25T04:13:28;99413.03;;;20.97;78.06
33845;BME280;20145;43.118;25.694;2023-05-25T04:15:54;99432.25;;;21.29;75.81
33845;BME280;20145;43.118;25.694;2023-05-25T04:18:21;99433.09;;;21.30;75.91
33845;BME280;20145;43.118;25.694;2023-05-25T04:20:59;99440.88;;;21.31;76.95
33845;BME280;20145;43.118;25.694;2023-05-25T04:23:26;99423.28;;;21.02;76.91
33845;BME280;20145;43.118;25.694;2023-05-25T04:25:52;99430.41;;;20.66;79.13
33845;BME280;20145;43.118;25.694;2023-05-25T04:28:18;99448.69;;;20.50;79.86
33845;BME280;20145;43.118;25.694;2023-05-25T04:30:44;99454.81;;;20.34;80.53
33845;BME280;20145;43.118;25.694;2023-05-25T04:33:12;99461.00;;;20.33;82.17
33845;BME280;20145;43.118;25.694;2023-05-25T04:35:37;99457.03;;;20.41;82.75
33845;BME280;20145;43.118;25.694;2023-05-25T04:40:58;99459.94;;;20.02;83.89
33845;BME280;20145;43.118;25.694;2023-05-25T04:43:35;99449.81;;;19.94;83.97
33845;BME280;20145;43.118;25.694;2023-05-25T04:46:00;99463.00;;;19.93;83.34
33845;BME280;20145;43.118;25.694;2023-05-25T04:48:33;99467.84;;;20.00;84.23
33845;BME280;20145;43.118;25.694;2023-05-25T04:51:00;99461.09;;;19.96;84.01
33845;BME280;20145;43.118;25.694;2023-05-25T04:53:28;99461.84;;;19.98;83.68
33845;BME280;20145;43.118;25.694;2023-05-25T04:55:54;99460.09;;;19.99;84.50
33845;BME280;20145;43.118;25.694;2023-05-25T04:58:24;99454.91;;;19.97;84.51
33845;BME280;20145;43.118;25.694;2023-05-25T05:00:50;99435.88;;;19.94;84.25
33845;BME280;20145;43.118;25.694;2023-05-25T05:03:15;99459.59;;;20.25;82.66
33845;BME280;20145;43.118;25.694;2023-05-25T05:05:41;99440.44;;;20.08;82.45
33845;BME280;20145;43.118;25.694;2023-05-25T05:08:10;99452.06;;;20.19;82.67
33845;BME280;20145;43.118;25.694;2023-05-25T05:10:43;99456.34;;;20.55;80.97
33845;BME280;20145;43.118;25.694;2023-05-25T05:13:10;99438.00;;;20.55;80.79
33845;BME280;20145;43.118;25.694;2023-05-25T05:15:42;99470.72;;;20.81;80.69
33845;BME280;20145;43.118;25.694;2023-05-25T05:18:07;99472.75;;;20.92;79.64
33845;BME280;20145;43.118;25.694;2023-05-25T05:20:33;99482.78;;;21.01;79.41
33845;BME280;20145;43.118;25.694;2023-05-25T05:22:59;99469.56;;;20.87;80.04
33845;BME280;20145;43.118;25.694;2023-05-25T05:25:25;99482.00;;;20.99;80.42
33845;BME280;20145;43.118;25.694;2023-05-25T05:27:51;99466.31;;;20.82;78.99
33845;BME280;20145;43.118;25.694;2023-05-25T05:30:17;99488.25;;;20.97;79.52
33845;BME280;20145;43.118;25.694;2023-05-25T05:32:42;99494.81;;;21.21;79.22
33845;BME280;20145;43.118;25.694;2023-05-25T05:35:08;99495.06;;;21.32;77.96
33845;BME280;20145;43.118;25.694;2023-05-25T05:37:34;99490.38;;;20.90;79.15
33845;BME280;20145;43.118;25.694;2023-05-25T05:39:59;99496.66;;;20.70;80.90
33845;BME280;20145;43.118;25.694;2023-05-25T05:42:25;99497.97;;;20.79;80.10
33845;BME280;20145;43.118;25.694;2023-05-25T05:45:03;99503.84;;;20.66;80.49
33845;BME280;20145;43.118;25.694;2023-05-25T05:47:28;99511.47;;;20.71;81.87
33845;BME280;20145;43.118;25.694;2023-05-25T05:49:54;99507.75;;;20.75;80.22
33845;BME280;20145;43.118;25.694;2023-05-25T05:52:19;99494.41;;;20.80;79.78
33845;BME280;20145;43.118;25.694;2023-05-25T05:54:45;99493.28;;;20.68;79.14
33845;BME280;20145;43.118;25.694;2023-05-25T05:57:11;99505.28;;;20.72;79.98
33845;BME280;20145;43.118;25.694;2023-05-25T05:59:37;99504.50;;;20.87;78.43
33845;BME280;20145;43.118;25.694;2023-05-25T06:02:02;99517.44;;;20.90;79.84
33845;BME280;20145;43.118;25.694;2023-05-25T06:04:28;99514.50;;;20.97;78.20
33845;BME280;20145;43.118;25.694;2023-05-25T06:06:54;99503.75;;;21.01;78.97
33845;BME280;20145;43.118;25.694;2023-05-25T06:09:20;99531.56;;;21.21;78.21
33845;BME280;20145;43.118;25.694;2023-05-25T06:11:46;99532.97;;;21.60;77.65
33845;BME280;20145;43.118;25.694;2023-05-25T06:14:11;99536.94;;;21.67;77.43
33845;BME280;20145;43.118;25.694;2023-05-25T06:16:37;99535.66;;;21.90;77.79
33845;BME280;20145;43.118;25.694;2023-05-25T06:19:02;99536.78;;;22.16;76.19
33845;BME280;20145;43.118;25.694;2023-05-25T06:21:29;99533.28;;;22.32;74.89
33845;BME280;20145;43.118;25.694;2023-05-25T06:23:54;99514.69;;;22.04;75.37
33845;BME280;20145;43.118;25.694;2023-05-25T06:26:22;99526.69;;;22.09;76.27
33845;BME280;20145;43.118;25.694;2023-05-25T06:28:48;99548.31;;;22.30;74.18
33845;BME280;20145;43.118;25.694;2023-05-25T06:31:14;99545.06;;;22.40;73.83
33845;BME280;20145;43.118;25.694;2023-05-25T06:33:40;99533.09;;;22.65;72.61
33845;BME280;20145;43.118;25.694;2023-05-25T06:36:07;99547.66;;;22.70;72.95
33845;BME280;20145;43.118;25.694;2023-05-25T06:38:33;99549.84;;;22.92;72.60
33845;BME280;20145;43.118;25.694;2023-05-25T06:40:58;99547.00;;;22.81;72.44
33845;BME280;20145;43.118;25.694;2023-05-25T06:43:29;99533.41;;;23.03;70.77
33845;BME280;20145;43.118;25.694;2023-05-25T06:45:56;99554.16;;;23.51;69.97
33845;BME280;20145;43.118;25.694;2023-05-25T06:48:22;99557.78;;;23.77;68.86
33845;BME280;20145;43.118;25.694;2023-05-25T06:50:48;99553.22;;;23.93;69.23
33845;BME280;20145;43.118;25.694;2023-05-25T06:53:13;99541.56;;;23.83;69.47
33845;BME280;20145;43.118;25.694;2023-05-25T06:55:39;99527.50;;;23.97;67.08
33845;BME280;20145;43.118;25.694;2023-05-25T06:58:04;99560.50;;;24.02;66.24
33845;BME280;20145;43.118;25.694;2023-05-25T07:00:30;99532.25;;;23.36;66.62
33845;BME280;20145;43.118;25.694;2023-05-25T07:02:56;99543.09;;;23.17;66.73
33845;BME280;20145;43.118;25.694;2023-05-25T07:05:21;99555.00;;;23.08;67.90
33845;BME280;20145;43.118;25.694;2023-05-25T07:07:47;99553.06;;;22.98;69.26
33845;BME280;20145;43.118;25.694;2023-05-25T07:10:12;99553.53;;;23.19;68.65
33845;BME280;20145;43.118;25.694;2023-05-25T07:12:38;99557.28;;;23.14;69.23
33845;BME280;20145;43.118;25.694;2023-05-25T07:15:04;99548.84;;;23.09;69.21
33845;BME280;20145;43.118;25.694;2023-05-25T07:17:30;99562.44;;;23.45;69.08
33845;BME280;20145;43.118;25.694;2023-05-25T07:19:55;99550.22;;;23.29;68.71
33845;BME280;20145;43.118;25.694;2023-05-25T07:22:21;99553.81;;;23.28;69.02
33845;BME280;20145;43.118;25.694;2023-05-25T07:24:48;99547.22;;;23.07;70.08
33845;BME280;20145;43.118;25.694;2023-05-25T07:27:14;99555.81;;;22.80;70.09
33845;BME280;20145;43.118;25.694;2023-05-25T07:29:39;99539.00;;;22.83;69.83
33845;BME280;20145;43.118;25.694;2023-05-25T07:32:05;99544.88;;;23.02;68.91
33845;BME280;20145;43.118;25.694;2023-05-25T07:34:32;99543.16;;;23.30;68.48
33845;BME280;20145;43.118;25.694;2023-05-25T07:36:58;99541.47;;;23.29;68.62
33845;BME280;20145;43.118;25.694;2023-05-25T07:39:24;99555.50;;;23.29;69.36
33845;BME280;20145;43.118;25.694;2023-05-25T07:41:49;99543.09;;;23.31;67.63
33845;BME280;20145;43.118;25.694;2023-05-25T07:44:15;99561.38;;;23.62;67.37
33845;BME280;20145;43.118;25.694;2023-05-25T07:46:41;99533.56;;;23.43;67.53
33845;BME280;20145;43.118;25.694;2023-05-25T07:49:07;99541.72;;;23.38;68.40
33845;BME280;20145;43.118;25.694;2023-05-25T07:51:38;99560.97;;;23.68;67.49
33845;BME280;20145;43.118;25.694;2023-05-25T07:54:05;99547.84;;;23.53;66.75
33845;BME280;20145;43.118;25.694;2023-05-25T07:56:30;99559.31;;;23.67;66.84
33845;BME280;20145;43.118;25.694;2023-05-25T07:58:56;99538.16;;;23.54;66.03
33845;BME280;20145;43.118;25.694;2023-05-25T08:01:24;99536.22;;;23.85;66.61
33845;BME280;20145;43.118;25.694;2023-05-25T08:03:50;99539.88;;;24.09;64.97
33845;BME280;20145;43.118;25.694;2023-05-25T08:06:16;99554.66;;;24.12;64.55
33845;BME280;20145;43.118;25.694;2023-05-25T08:08:41;99539.94;;;23.95;64.58
33845;BME280;20145;43.118;25.694;2023-05-25T08:11:09;99546.34;;;23.91;63.94
33845;BME280;20145;43.118;25.694;2023-05-25T08:13:35;99535.22;;;24.00;65.31
33845;BME280;20145;43.118;25.694;2023-05-25T08:16:01;99545.50;;;24.30;65.68
33845;BME280;20145;43.118;25.694;2023-05-25T08:18:27;99551.75;;;24.29;65.79
33845;BME280;20145;43.118;25.694;2023-05-25T08:20:52;99549.00;;;24.31;64.80
33845;BME280;20145;43.118;25.694;2023-05-25T08:23:18;99548.25;;;24.41;66.01
33845;BME280;20145;43.118;25.694;2023-05-25T08:25:43;99537.25;;;24.49;63.95
33845;BME280;20145;43.118;25.694;2023-05-25T08:28:09;99528.41;;;24.50;62.15
33845;BME280;20145;43.118;25.694;2023-05-25T08:30:34;99538.94;;;24.63;61.84
33845;BME280;20145;43.118;25.694;2023-05-25T08:33:00;99538.31;;;24.59;63.88
33845;BME280;20145;43.118;25.694;2023-05-25T08:35:25;99528.19;;;24.66;64.29
33845;BME280;20145;43.118;25.694;2023-05-25T08:37:51;99535.59;;;24.86;59.18
33845;BME280;20145;43.118;25.694;2023-05-25T08:40:17;99528.72;;;24.71;58.03
33845;BME280;20145;43.118;25.694;2023-05-25T08:42:46;99522.59;;;24.45;61.70
33845;BME280;20145;43.118;25.694;2023-05-25T08:45:12;99538.31;;;24.59;60.65
33845;BME280;20145;43.118;25.694;2023-05-25T08:47:41;99546.16;;;24.86;60.64
33845;BME280;20145;43.118;25.694;2023-05-25T08:50:11;99536.41;;;25.00;61.12
33845;BME280;20145;43.118;25.694;2023-05-25T08:52:44;99542.97;;;25.20;60.36
33845;BME280;20145;43.118;25.694;2023-05-25T08:55:11;99545.25;;;25.37;59.26
33845;BME280;20145;43.118;25.694;2023-05-25T08:58:22;99546.63;;;25.43;60.92
33845;BME280;20145;43.118;25.694;2023-05-25T09:00:55;99531.00;;;25.40;58.47
33845;BME280;20145;43.118;25.694;2023-05-25T09:03:23;99530.03;;;25.41;59.32
33845;BME280;20145;43.118;25.694;2023-05-25T09:05:49;99525.31;;;25.57;61.27
33845;BME280;20145;43.118;25.694;2023-05-25T09:08:16;99513.00;;;25.69;58.84
33845;BME280;20145;43.118;25.694;2023-05-25T09:10:42;99530.03;;;25.77;59.89
33845;BME280;20145;43.118;25.694;2023-05-25T09:13:08;99529.06;;;25.78;58.94
33845;BME280;20145;43.118;25.694;2023-05-25T09:15:34;99514.00;;;25.31;58.11
33845;BME280;20145;43.118;25.694;2023-05-25T09:18:00;99514.84;;;25.31;60.13
33845;BME280;20145;43.118;25.694;2023-05-25T09:20:25;99512.41;;;25.28;56.88
33845;BME280;20145;43.118;25.694;2023-05-25T09:22:56;99528.63;;;25.48;57.68
33845;BME280;20145;43.118;25.694;2023-05-25T09:25:24;99530.59;;;25.57;56.15
33845;BME280;20145;43.118;25.694;2023-05-25T09:27:52;99520.69;;;25.85;56.53
33845;BME280;20145;43.118;25.694;2023-05-25T09:30:17;99515.22;;;25.99;55.74
33845;BME280;20145;43.118;25.694;2023-05-25T09:32:43;99512.72;;;25.97;56.49
33845;BME280;20145;43.118;25.694;2023-05-25T09:35:10;99506.72;;;26.07;55.92
33845;BME280;20145;43.118;25.694;2023-05-25T09:37:36;99498.81;;;26.07;55.78
33845;BME280;20145;43.118;25.694;2023-05-25T09:40:04;99509.94;;;26.34;54.46
33845;BME280;20145;43.118;25.694;2023-05-25T09:42:31;99494.56;;;26.39;53.19
33845;BME280;20145;43.118;25.694;2023-05-25T09:44:58;99490.00;;;26.41;53.87
33845;BME280;20145;43.118;25.694;2023-05-25T09:47:26;99501.75;;;26.73;49.59
33845;BME280;20145;43.118;25.694;2023-05-25T09:49:53;99495.97;;;26.32;51.02
33845;BME280;20145;43.118;25.694;2023-05-25T09:52:19;99499.56;;;26.20;48.33
33845;BME280;20145;43.118;25.694;2023-05-25T09:54:46;99490.25;;;26.50;48.35
33845;BME280;20145;43.118;25.694;2023-05-25T09:57:12;99487.91;;;26.69;48.78
33845;BME280;20145;43.118;25.694;2023-05-25T09:59:40;99487.78;;;26.93;48.58
33845;BME280;20145;43.118;25.694;2023-05-25T10:02:06;99473.59;;;27.05;49.28
33845;BME280;20145;43.118;25.694;2023-05-25T10:04:32;99471.75;;;27.28;48.12
33845;BME280;20145;43.118;25.694;2023-05-25T10:06:59;99455.75;;;27.30;47.73
33845;BME280;20145;43.118;25.694;2023-05-25T10:09:27;99462.47;;;27.34;49.60
33845;BME280;20145;43.118;25.694;2023-05-25T10:11:55;99458.63;;;27.38;50.10
33845;BME280;20145;43.118;25.694;2023-05-25T10:14:25;99454.44;;;27.24;48.19
33845;BME280;20145;43.118;25.694;2023-05-25T10:16:53;99463.34;;;27.01;50.93
33845;BME280;20145;43.118;25.694;2023-05-25T10:24:51;99459.25;;;26.97;53.70
33845;BME280;20145;43.118;25.694;2023-05-25T10:27:22;99453.59;;;26.90;53.67
33845;BME280;20145;43.118;25.694;2023-05-25T10:29:49;99448.97;;;26.36;58.33
33845;BME280;20145;43.118;25.694;2023-05-25T10:32:16;99442.22;;;26.20;59.80
33845;BME280;20145;43.118;25.694;2023-05-25T10:34:42;99453.44;;;25.89;61.46
33845;BME280;20145;43.118;25.694;2023-05-25T10:37:10;99414.56;;;25.54;61.06
33845;BME280;20145;43.118;25.694;2023-05-25T10:39:37;99437.56;;;25.65;61.25
33845;BME280;20145;43.118;25.694;2023-05-25T10:42:03;99445.19;;;25.80;60.26
33845;BME280;20145;43.118;25.694;2023-05-25T10:44:29;99439.19;;;25.78;60.46
33845;BME280;20145;43.118;25.694;2023-05-25T10:46:59;99449.75;;;25.78;59.40
33845;BME280;20145;43.118;25.694;2023-05-25T10:49:30;99441.66;;;25.93;58.81
33845;BME280;20145;43.118;25.694;2023-05-25T10:51:57;99440.94;;;25.67;59.55
33845;BME280;20145;43.118;25.694;2023-05-25T10:54:37;99441.44;;;25.48;60.86
33845;BME280;20145;43.118;25.694;2023-05-25T10:57:08;99439.66;;;25.48;61.63
33845;BME280;20145;43.118;25.694;2023-05-25T10:59:39;99441.81;;;25.54;61.41
33845;BME280;20145;43.118;25.694;2023-05-25T11:02:06;99437.94;;;25.23;61.07
33845;BME280;20145;43.118;25.694;2023-05-25T11:04:32;99425.34;;;25.27;58.68
33845;BME280;20145;43.118;25.694;2023-05-25T11:09:30;99423.78;;;25.24;61.24
33845;BME280;20145;43.118;25.694;2023-05-25T11:14:30;99433.66;;;25.57;57.99
33845;BME280;20145;43.118;25.694;2023-05-25T11:22:30;99430.34;;;26.48;56.10
33845;BME280;20145;43.118;25.694;2023-05-25T11:24:58;99416.91;;;26.52;52.76
33845;BME280;20145;43.118;25.694;2023-05-25T11:27:27;99431.91;;;26.96;50.84
33845;BME280;20145;43.118;25.694;2023-05-25T11:29:54;99428.56;;;26.94;47.54
33845;BME280;20145;43.118;25.694;2023-05-25T11:32:26;99409.81;;;26.86;50.94
33845;BME280;20145;43.118;25.694;2023-05-25T11:34:55;99413.03;;;26.89;52.83
33845;BME280;20145;43.118;25.694;2023-05-25T11:37:24;99397.13;;;27.01;53.03
33845;BME280;20145;43.118;25.694;2023-05-25T11:39:51;99419.75;;;27.27;51.16
33845;BME280;20145;43.118;25.694;2023-05-25T11:42:19;99414.00;;;27.00;50.96
33845;BME280;20145;43.118;25.694;2023-05-25T11:44:47;99404.63;;;26.84;49.10
33845;BME280;20145;43.118;25.694;2023-05-25T11:47:13;99427.09;;;26.34;48.83
33845;BME280;20145;43.118;25.694;2023-05-25T11:49:44;99438.13;;;26.16;50.82
33845;BME280;20145;43.118;25.694;2023-05-25T11:52:13;99410.06;;;25.67;51.01
33845;BME280;20145;43.118;25.694;2023-05-25T11:54:39;99433.25;;;25.40;51.05
33845;BME280;20145;43.118;25.694;2023-05-25T11:57:16;99457.31;;;25.48;51.78
33845;BME280;20145;43.118;25.694;2023-05-25T12:02:14;99467.63;;;25.14;52.28
33845;BME280;20145;43.118;25.694;2023-05-25T12:04:40;99454.16;;;24.93;51.38
33845;BME280;20145;43.118;25.694;2023-05-25T12:07:07;99456.34;;;24.99;53.77
33845;BME280;20145;43.118;25.694;2023-05-25T12:09:33;99439.22;;;25.05;54.17
33845;BME280;20145;43.118;25.694;2023-05-25T12:12:02;99432.88;;;25.07;54.37
33845;BME280;20145;43.118;25.694;2023-05-25T12:14:29;99410.69;;;25.10;53.89
33845;BME280;20145;43.118;25.694;2023-05-25T12:16:55;99416.81;;;25.23;55.22
33845;BME280;20145;43.118;25.694;2023-05-25T12:19:21;99406.91;;;25.14;53.85
33845;BME280;20145;43.118;25.694;2023-05-25T12:21:47;99380.13;;;24.95;52.62
33845;BME280;20145;43.118;25.694;2023-05-25T12:24:16;99421.03;;;25.26;54.62
33845;BME280;20145;43.118;25.694;2023-05-25T12:26:52;99417.06;;;25.44;54.96
33845;BME280;20145;43.118;25.694;2023-05-25T12:29:26;99426.25;;;25.63;55.67
33845;BME280;20145;43.118;25.694;2023-05-25T12:32:00;99421.47;;;25.68;54.83
33845;BME280;20145;43.118;25.694;2023-05-25T12:34:26;99418.00;;;25.67;55.07
33845;BME280;20145;43.118;25.694;2023-05-25T12:36:54;99415.59;;;25.64;56.00
33845;BME280;20145;43.118;25.694;2023-05-25T12:41:57;99397.78;;;25.66;57.20
33845;BME280;20145;43.118;25.694;2023-05-25T12:44:28;99399.72;;;25.64;56.24
33845;BME280;20145;43.118;25.694;2023-05-25T12:47:16;99396.75;;;25.80;55.90
33845;BME280;20145;43.118;25.694;2023-05-25T12:49:51;99407.66;;;25.99;56.18
33845;BME280;20145;43.118;25.694;2023-05-25T12:52:37;99404.56;;;26.06;55.51
33845;BME280;20145;43.118;25.694;2023-05-25T12:55:25;99403.94;;;26.02;57.04
33845;BME280;20145;43.118;25.694;2023-05-25T12:57:55;99401.50;;;25.88;55.57
33845;BME280;20145;43.118;25.694;2023-05-25T13:00:24;99404.22;;;25.75;54.35
33845;BME280;20145;43.118;25.694;2023-05-25T13:02:52;99401.53;;;25.64;55.62
33845;BME280;20145;43.118;25.694;2023-05-25T13:05:28;99407.59;;;25.53;56.65
33845;BME280;20145;43.118;25.694;2023-05-25T13:07:55;99417.50;;;25.38;57.14
33845;BME280;20145;43.118;25.694;2023-05-25T13:10:21;99398.78;;;25.17;57.41
33845;BME280;20145;43.118;25.694;2023-05-25T13:12:48;99405.53;;;25.08;57.71
33845;BME280;20145;43.118;25.694;2023-05-25T13:15:16;99390.91;;;24.91;58.88
33845;BME280;20145;43.118;25.694;2023-05-25T13:17:44;99408.22;;;24.96;59.55
33845;BME280;20145;43.118;25.694;2023-05-25T13:20:12;99392.09;;;24.75;60.70
33845;BME280;20145;43.118;25.694;2023-05-25T13:22:39;99406.91;;;24.64;59.17
33845;BME280;20145;43.118;25.694;2023-05-25T13:25:06;99400.41;;;24.44;60.67
33845;BME280;20145;43.118;25.694;2023-05-25T13:27:34;99392.16;;;24.36;61.13
33845;BME280;20145;43.118;25.694;2023-05-25T13:30:05;99392.13;;;24.23;60.54
33845;BME280;20145;43.118;25.694;2023-05-25T13:32:35;99404.06;;;24.29;61.27
33845;BME280;20145;43.118;25.694;2023-05-25T13:35:00;99402.59;;;24.25;61.65